UAL760 KDEN-EDDM
Flight info
| Callsign | UAL760 |
|---|---|
| Flight time | N/A |
| Altitude | 33000 |
| Route | CHUWY1 CHUWY DCT ONL DCT HSTIN DCT SSM/N0498F350 DCT YUY DCT YZV DCT RIKAL/M085F360 DCT 53N050W 54N040W 55N030W 56N020W DCT PIKIL DCT SOVED/N0488F370 DCT LUTOV DCT TADEX DCT BELOX L603 DOLAS DCT NAVPI DCT NOLRU DCT DOJOH DCT DODEN/N0495F330 DCT TABUM DCT BOMBI T104 HAREM/N0485F270 T104 ROKIL ROKIL1A |
| Aircraft | B78X/H-SDE1E2E3FGHIJ2J3J4J5M1RWXY/LB1D1 |
Departure
| Time | 2026-05-06 02:13 |
|---|---|
| Airport | Denver International Airport (KDEN) |
Arrival
| Time | N/A |
|---|---|
| Airport | Munich Airport (EDDM) |
| Time | Latitude | Longitude | Altitude | Speed | Heading |
|---|---|---|---|---|---|
| 2026-05-06 01:42 | 39.85806 | -104.67285 | 5391 ft | 0 kts | 359° |
| 2026-05-06 01:43 | 39.85805 | -104.67285 | 5391 ft | 0 kts | 359° |
| 2026-05-06 02:01 | 39.85801 | -104.67285 | 5392 ft | 2 kts | 359° |
| 2026-05-06 02:01 | 39.85800 | -104.67285 | 5392 ft | 2 kts | 359° |
| 2026-05-06 02:02 | 39.85782 | -104.67285 | 5383 ft | 3 kts | 359° |
| 2026-05-06 02:02 | 39.85761 | -104.67285 | 5384 ft | 3 kts | 359° |
| 2026-05-06 02:02 | 39.85741 | -104.67285 | 5382 ft | 3 kts | 359° |
| 2026-05-06 02:02 | 39.85721 | -104.67284 | 5383 ft | 2 kts | 359° |
| 2026-05-06 02:03 | 39.85715 | -104.67284 | 5384 ft | 0 kts | 359° |
| 2026-05-06 02:05 | 39.85716 | -104.67285 | 5385 ft | 0 kts | 353° |
| 2026-05-06 02:06 | 39.85725 | -104.67291 | 5383 ft | 1 kts | 334° |
| 2026-05-06 02:06 | 39.85726 | -104.67298 | 5384 ft | 2 kts | 307° |
| 2026-05-06 02:07 | 39.85712 | -104.67324 | 5383 ft | 7 kts | 224° |
| 2026-05-06 02:07 | 39.85627 | -104.67412 | 5385 ft | 25 kts | 228° |
| 2026-05-06 02:07 | 39.85592 | -104.67561 | 5386 ft | 14 kts | 268° |
| 2026-05-06 02:07 | 39.85592 | -104.67689 | 5392 ft | 15 kts | 270° |
| 2026-05-06 02:08 | 39.85593 | -104.67839 | 5392 ft | 18 kts | 270° |
| 2026-05-06 02:08 | 39.85595 | -104.68009 | 5391 ft | 20 kts | 271° |
| 2026-05-06 02:08 | 39.85598 | -104.68186 | 5386 ft | 19 kts | 271° |
| 2026-05-06 02:08 | 39.85593 | -104.68357 | 5383 ft | 20 kts | 245° |
| 2026-05-06 02:09 | 39.85484 | -104.68402 | 5378 ft | 16 kts | 185° |
| 2026-05-06 02:09 | 39.85379 | -104.68408 | 5378 ft | 14 kts | 180° |
| 2026-05-06 02:09 | 39.85284 | -104.68408 | 5380 ft | 12 kts | 180° |
| 2026-05-06 02:09 | 39.85220 | -104.68437 | 5372 ft | 9 kts | 223° |
| 2026-05-06 02:10 | 39.85207 | -104.68534 | 5375 ft | 12 kts | 268° |
| 2026-05-06 02:10 | 39.85204 | -104.68648 | 5369 ft | 15 kts | 268° |
| 2026-05-06 02:10 | 39.85201 | -104.68791 | 5363 ft | 17 kts | 269° |
| 2026-05-06 02:10 | 39.85199 | -104.68956 | 5358 ft | 19 kts | 268° |
| 2026-05-06 02:11 | 39.85197 | -104.69141 | 5353 ft | 21 kts | 271° |
| 2026-05-06 02:11 | 39.85202 | -104.69342 | 5348 ft | 23 kts | 272° |
| 2026-05-06 02:11 | 39.85202 | -104.69537 | 5343 ft | 17 kts | 269° |
| 2026-05-06 02:11 | 39.85213 | -104.69641 | 5341 ft | 5 kts | 310° |
| 2026-05-06 02:12 | 39.85226 | -104.69647 | 5343 ft | 2 kts | 337° |
| 2026-05-06 02:12 | 39.85261 | -104.69654 | 5342 ft | 8 kts | 353° |
| 2026-05-06 02:12 | 39.85397 | -104.69658 | 5342 ft | 42 kts | 360° |
| 2026-05-06 02:12 | 39.85905 | -104.69651 | 5348 ft | 104 kts | 0° |
| 2026-05-06 02:13 | 39.86827 | -104.69640 | 5345 ft | 159 kts | 0° |
| 2026-05-06 02:13 | 39.88077 | -104.69618 | 5354 ft | 203 kts | 1° |
| 2026-05-06 02:13 | 39.89551 | -104.69598 | 5871 ft | 225 kts | 359° |
| 2026-05-06 02:13 | 39.91238 | -104.69505 | 6554 ft | 248 kts | 5° |
| 2026-05-06 02:14 | 39.93009 | -104.69510 | 7304 ft | 264 kts | 359° |
| 2026-05-06 02:14 | 39.94863 | -104.69551 | 8140 ft | 269 kts | 1° |
| 2026-05-06 02:14 | 39.96759 | -104.69498 | 8989 ft | 275 kts | 2° |
| 2026-05-06 02:14 | 39.98687 | -104.69421 | 9861 ft | 279 kts | 1° |
| 2026-05-06 02:15 | 40.00636 | -104.69364 | 10544 ft | 290 kts | 0° |
| 2026-05-06 02:15 | 40.02719 | -104.69302 | 11020 ft | 309 kts | 2° |
| 2026-05-06 02:15 | 40.04828 | -104.68459 | 11452 ft | 331 kts | 28° |
| 2026-05-06 02:15 | 40.06867 | -104.66863 | 11897 ft | 350 kts | 32° |
| 2026-05-06 02:16 | 40.08906 | -104.65051 | 12651 ft | 359 kts | 32° |
| 2026-05-06 02:16 | 40.11011 | -104.63224 | 13464 ft | 366 kts | 30° |
| 2026-05-06 02:16 | 40.13197 | -104.61422 | 14235 ft | 373 kts | 29° |
| 2026-05-06 02:16 | 40.15409 | -104.59592 | 15032 ft | 378 kts | 29° |
| 2026-05-06 02:17 | 40.17599 | -104.57739 | 15810 ft | 383 kts | 29° |
| 2026-05-06 02:17 | 40.19862 | -104.55818 | 16605 ft | 388 kts | 28° |
| 2026-05-06 02:17 | 40.22142 | -104.53898 | 17403 ft | 392 kts | 28° |
| 2026-05-06 02:17 | 40.24281 | -104.52101 | 18133 ft | 396 kts | 27° |
| 2026-05-06 02:18 | 40.26614 | -104.50132 | 18830 ft | 401 kts | 27° |
| 2026-05-06 02:18 | 40.28972 | -104.48137 | 19485 ft | 406 kts | 27° |
| 2026-05-06 02:18 | 40.31357 | -104.46118 | 20111 ft | 411 kts | 27° |
| 2026-05-06 02:18 | 40.33776 | -104.44072 | 20743 ft | 416 kts | 27° |
| 2026-05-06 02:19 | 40.36227 | -104.41996 | 21365 ft | 421 kts | 27° |
| 2026-05-06 02:19 | 40.38705 | -104.39894 | 21969 ft | 426 kts | 27° |
| 2026-05-06 02:19 | 40.41215 | -104.37764 | 22552 ft | 431 kts | 27° |
| 2026-05-06 02:19 | 40.43750 | -104.35611 | 23131 ft | 436 kts | 27° |
| 2026-05-06 02:20 | 40.48875 | -104.31251 | 24161 ft | 446 kts | 27° |
| 2026-05-06 02:20 | 40.51493 | -104.29021 | 24644 ft | 450 kts | 27° |
| 2026-05-06 02:20 | 40.54130 | -104.26771 | 25128 ft | 453 kts | 27° |
| 2026-05-06 02:21 | 40.56776 | -104.24481 | 25623 ft | 459 kts | 32° |
| 2026-05-06 02:21 | 40.59167 | -104.21636 | 26096 ft | 468 kts | 43° |
| 2026-05-06 02:21 | 40.59832 | -104.20702 | 26231 ft | 470 kts | 43° |
| 2026-05-06 02:21 | 40.62065 | -104.17541 | 26670 ft | 474 kts | 44° |
| 2026-05-06 02:22 | 40.64304 | -104.14314 | 27126 ft | 478 kts | 44° |
| 2026-05-06 02:22 | 40.66536 | -104.11113 | 27548 ft | 481 kts | 43° |
| 2026-05-06 02:22 | 40.68821 | -104.07865 | 27981 ft | 485 kts | 43° |
| 2026-05-06 02:22 | 40.71121 | -104.04589 | 28404 ft | 489 kts | 43° |
| 2026-05-06 02:23 | 40.73432 | -104.01273 | 28819 ft | 493 kts | 44° |
| 2026-05-06 02:23 | 40.75762 | -103.97925 | 29219 ft | 496 kts | 44° |
| 2026-05-06 02:23 | 40.78116 | -103.94551 | 29615 ft | 500 kts | 44° |
| 2026-05-06 02:23 | 40.80480 | -103.91160 | 30001 ft | 504 kts | 44° |
| 2026-05-06 02:24 | 40.82861 | -103.87735 | 30341 ft | 508 kts | 44° |
| 2026-05-06 02:24 | 40.85257 | -103.84281 | 30664 ft | 511 kts | 44° |
| 2026-05-06 02:24 | 40.87670 | -103.80803 | 30993 ft | 514 kts | 44° |
| 2026-05-06 02:24 | 40.90063 | -103.77351 | 31325 ft | 516 kts | 44° |
| 2026-05-06 02:25 | 40.92496 | -103.73837 | 31662 ft | 519 kts | 44° |
| 2026-05-06 02:25 | 40.94727 | -103.70610 | 31978 ft | 521 kts | 44° |
| 2026-05-06 02:25 | 40.97168 | -103.67074 | 32317 ft | 524 kts | 44° |
| 2026-05-06 02:25 | 40.99618 | -103.63522 | 32663 ft | 526 kts | 43° |
| 2026-05-06 02:26 | 41.01885 | -103.60232 | 32971 ft | 528 kts | 43° |
| 2026-05-06 02:26 | 41.06039 | -103.54194 | 33045 ft | 529 kts | 44° |
| 2026-05-06 02:27 | 41.10974 | -103.47003 | 33047 ft | 531 kts | 44° |
| 2026-05-06 02:27 | 41.15943 | -103.39746 | 33051 ft | 531 kts | 44° |
| 2026-05-06 02:28 | 41.20918 | -103.32461 | 33060 ft | 533 kts | 44° |
| 2026-05-06 02:28 | 41.25881 | -103.25178 | 33062 ft | 533 kts | 44° |
| 2026-05-06 02:29 | 41.30871 | -103.17840 | 33064 ft | 534 kts | 44° |
| 2026-05-06 02:29 | 41.35858 | -103.10486 | 33062 ft | 535 kts | 44° |
| 2026-05-06 02:30 | 41.40847 | -103.03112 | 33056 ft | 536 kts | 44° |
| 2026-05-06 02:30 | 41.45808 | -102.95760 | 33059 ft | 537 kts | 44° |
| 2026-05-06 02:31 | 41.50546 | -102.88035 | 33066 ft | 543 kts | 57° |
| 2026-05-06 02:31 | 41.52226 | -102.83487 | 33061 ft | 547 kts | 69° |
| 2026-05-06 02:31 | 41.53462 | -102.78682 | 33047 ft | 549 kts | 70° |
| 2026-05-06 02:32 | 41.55871 | -102.69014 | 33044 ft | 549 kts | 71° |
| 2026-05-06 02:32 | 41.57958 | -102.60580 | 33046 ft | 549 kts | 71° |
| 2026-05-06 02:33 | 41.60353 | -102.50923 | 33043 ft | 550 kts | 71° |
| 2026-05-06 02:33 | 41.61160 | -102.47633 | 33043 ft | 551 kts | 71° |
| 2026-05-06 02:34 | 41.65136 | -102.31445 | 33042 ft | 552 kts | 71° |
| 2026-05-06 02:34 | 41.67517 | -102.21681 | 33054 ft | 552 kts | 71° |
| 2026-05-06 02:35 | 41.69899 | -102.11888 | 33051 ft | 553 kts | 72° |
| 2026-05-06 02:35 | 41.71870 | -102.03742 | 33049 ft | 554 kts | 72° |
| 2026-05-06 02:36 | 41.74625 | -101.92320 | 33049 ft | 555 kts | 72° |
| 2026-05-06 02:36 | 41.76603 | -101.84078 | 33053 ft | 555 kts | 72° |
| 2026-05-06 02:37 | 41.78946 | -101.74284 | 33053 ft | 555 kts | 72° |
| 2026-05-06 02:37 | 41.81299 | -101.64398 | 33067 ft | 556 kts | 72° |
| 2026-05-06 02:38 | 41.83646 | -101.54503 | 33064 ft | 556 kts | 72° |
| 2026-05-06 02:38 | 41.85982 | -101.44605 | 33058 ft | 557 kts | 72° |
| 2026-05-06 02:39 | 41.88304 | -101.34727 | 33051 ft | 557 kts | 72° |
| 2026-05-06 02:39 | 41.90630 | -101.24784 | 33050 ft | 558 kts | 72° |
| 2026-05-06 02:40 | 41.92721 | -101.15810 | 33058 ft | 558 kts | 73° |
| 2026-05-06 02:40 | 41.95032 | -101.05850 | 33043 ft | 559 kts | 73° |
| 2026-05-06 02:41 | 41.97340 | -100.95858 | 33052 ft | 560 kts | 73° |
| 2026-05-06 02:41 | 41.99255 | -100.87517 | 33052 ft | 557 kts | 74° |
| 2026-05-06 02:42 | 42.01544 | -100.77541 | 33057 ft | 561 kts | 73° |
| 2026-05-06 02:42 | 42.03835 | -100.67508 | 33061 ft | 560 kts | 73° |
| 2026-05-06 02:43 | 42.06095 | -100.57532 | 33064 ft | 561 kts | 73° |
| 2026-05-06 02:43 | 42.08377 | -100.47460 | 33060 ft | 562 kts | 73° |
| 2026-05-06 02:44 | 42.10639 | -100.37381 | 33059 ft | 563 kts | 73° |
| 2026-05-06 02:44 | 42.12899 | -100.27288 | 33059 ft | 563 kts | 74° |
| 2026-05-06 02:45 | 42.15155 | -100.17174 | 33051 ft | 564 kts | 73° |
| 2026-05-06 02:45 | 42.17408 | -100.07036 | 33053 ft | 564 kts | 74° |
| 2026-05-06 02:46 | 42.19629 | -99.96949 | 33052 ft | 564 kts | 73° |
| 2026-05-06 02:46 | 42.21870 | -99.86782 | 33057 ft | 564 kts | 74° |
| 2026-05-06 02:47 | 42.24087 | -99.76623 | 33052 ft | 565 kts | 74° |
| 2026-05-06 02:47 | 42.26297 | -99.66491 | 33061 ft | 565 kts | 74° |
| 2026-05-06 02:48 | 42.28505 | -99.56289 | 33062 ft | 565 kts | 74° |
| 2026-05-06 02:48 | 42.30153 | -99.48657 | 33068 ft | 565 kts | 74° |
| 2026-05-06 02:49 | 42.32345 | -99.38453 | 33066 ft | 565 kts | 74° |
| 2026-05-06 02:49 | 42.34529 | -99.28241 | 33073 ft | 565 kts | 74° |
| 2026-05-06 02:50 | 42.36705 | -99.18012 | 33077 ft | 565 kts | 74° |
| 2026-05-06 02:50 | 42.38856 | -99.07854 | 33071 ft | 565 kts | 74° |
| 2026-05-06 02:51 | 42.41014 | -98.97617 | 33076 ft | 565 kts | 74° |
| 2026-05-06 02:51 | 42.43165 | -98.87360 | 33073 ft | 565 kts | 74° |
| 2026-05-06 02:52 | 42.45288 | -98.77183 | 33073 ft | 565 kts | 74° |
| 2026-05-06 02:52 | 42.47444 | -98.67658 | 33091 ft | 564 kts | 64° |
| 2026-05-06 02:53 | 42.50800 | -98.58034 | 33075 ft | 564 kts | 62° |
| 2026-05-06 02:53 | 42.54192 | -98.48430 | 33074 ft | 564 kts | 63° |
| 2026-05-06 02:54 | 42.57544 | -98.38816 | 33077 ft | 564 kts | 63° |
| 2026-05-06 02:54 | 42.60888 | -98.29258 | 33084 ft | 564 kts | 63° |
| 2026-05-06 02:55 | 42.64234 | -98.19618 | 33085 ft | 563 kts | 63° |
| 2026-05-06 02:55 | 42.67576 | -98.09981 | 33085 ft | 564 kts | 63° |
| 2026-05-06 02:56 | 42.70907 | -98.00326 | 33092 ft | 564 kts | 63° |
| 2026-05-06 02:56 | 42.74237 | -97.90652 | 33091 ft | 564 kts | 63° |
| 2026-05-06 02:57 | 42.77549 | -97.80989 | 33090 ft | 564 kts | 63° |
| 2026-05-06 02:57 | 42.80838 | -97.71364 | 33077 ft | 563 kts | 63° |
| 2026-05-06 02:58 | 42.84133 | -97.61681 | 33069 ft | 563 kts | 63° |
| 2026-05-06 02:58 | 42.87430 | -97.51963 | 33058 ft | 564 kts | 63° |
| 2026-05-06 02:59 | 42.90714 | -97.42247 | 33056 ft | 564 kts | 63° |
| 2026-05-06 02:59 | 42.93973 | -97.32573 | 33054 ft | 564 kts | 63° |
| 2026-05-06 03:00 | 42.97243 | -97.22830 | 33064 ft | 565 kts | 63° |
| 2026-05-06 03:00 | 43.00511 | -97.13056 | 33079 ft | 565 kts | 63° |
| 2026-05-06 03:01 | 43.03770 | -97.03274 | 33077 ft | 566 kts | 63° |
| 2026-05-06 03:01 | 43.07025 | -96.93471 | 33068 ft | 566 kts | 63° |
| 2026-05-06 03:02 | 43.10272 | -96.83653 | 33066 ft | 566 kts | 63° |
| 2026-05-06 03:02 | 43.13515 | -96.73815 | 33057 ft | 566 kts | 63° |
| 2026-05-06 03:03 | 43.16748 | -96.63968 | 33056 ft | 566 kts | 63° |
| 2026-05-06 03:03 | 43.19956 | -96.54163 | 33058 ft | 566 kts | 63° |
| 2026-05-06 03:04 | 43.23170 | -96.44304 | 33050 ft | 566 kts | 63° |
| 2026-05-06 03:04 | 43.26372 | -96.34443 | 33045 ft | 566 kts | 64° |
| 2026-05-06 03:05 | 43.29566 | -96.24571 | 33047 ft | 566 kts | 64° |
| 2026-05-06 03:05 | 43.32758 | -96.14671 | 33040 ft | 566 kts | 64° |
| 2026-05-06 03:06 | 43.35939 | -96.04766 | 33036 ft | 566 kts | 64° |
| 2026-05-06 03:06 | 43.39091 | -95.94917 | 33033 ft | 566 kts | 64° |
| 2026-05-06 03:07 | 43.42253 | -95.84996 | 33033 ft | 566 kts | 64° |
| 2026-05-06 03:07 | 43.45410 | -95.75056 | 33047 ft | 566 kts | 64° |
| 2026-05-06 03:08 | 43.48551 | -95.65129 | 33046 ft | 566 kts | 64° |
| 2026-05-06 03:08 | 43.51691 | -95.55164 | 33048 ft | 566 kts | 64° |
| 2026-05-06 03:09 | 43.54819 | -95.45204 | 33047 ft | 567 kts | 64° |
| 2026-05-06 03:09 | 43.57929 | -95.35261 | 33043 ft | 567 kts | 64° |
| 2026-05-06 03:10 | 43.61050 | -95.25244 | 33032 ft | 566 kts | 64° |
| 2026-05-06 03:10 | 43.64136 | -95.15303 | 33027 ft | 566 kts | 64° |
| 2026-05-06 03:11 | 43.67229 | -95.05303 | 33025 ft | 566 kts | 64° |
| 2026-05-06 03:11 | 43.70315 | -94.95283 | 33022 ft | 566 kts | 64° |
| 2026-05-06 03:12 | 43.73391 | -94.85259 | 33013 ft | 565 kts | 64° |
| 2026-05-06 03:12 | 43.76439 | -94.75288 | 33016 ft | 565 kts | 64° |
| 2026-05-06 03:13 | 43.79495 | -94.65252 | 33015 ft | 565 kts | 64° |
| 2026-05-06 03:13 | 43.82544 | -94.55197 | 33018 ft | 565 kts | 64° |
| 2026-05-06 03:14 | 43.85565 | -94.45198 | 33018 ft | 566 kts | 64° |
| 2026-05-06 03:14 | 43.88598 | -94.35119 | 33025 ft | 566 kts | 64° |
| 2026-05-06 03:15 | 43.91618 | -94.25043 | 33021 ft | 566 kts | 65° |
| 2026-05-06 03:15 | 43.94633 | -94.14947 | 33023 ft | 565 kts | 65° |
| 2026-05-06 03:16 | 43.97631 | -94.04867 | 33019 ft | 565 kts | 65° |
| 2026-05-06 03:16 | 44.00606 | -93.94822 | 33018 ft | 565 kts | 65° |
| 2026-05-06 03:17 | 44.03227 | -93.86198 | 33021 ft | 564 kts | 64° |
| 2026-05-06 03:17 | 44.06283 | -93.76120 | 33019 ft | 565 kts | 65° |
| 2026-05-06 03:18 | 44.08967 | -93.67166 | 33017 ft | 564 kts | 64° |
| 2026-05-06 03:18 | 44.11985 | -93.57142 | 33014 ft | 565 kts | 65° |
| 2026-05-06 03:19 | 44.15000 | -93.47023 | 33015 ft | 565 kts | 65° |
| 2026-05-06 03:19 | 44.18011 | -93.36925 | 32995 ft | 565 kts | 65° |
| 2026-05-06 03:20 | 44.22489 | -93.21792 | 32993 ft | 565 kts | 65° |
| 2026-05-06 03:20 | 44.25481 | -93.11641 | 32999 ft | 565 kts | 65° |
| 2026-05-06 03:21 | 44.28456 | -93.01500 | 32992 ft | 564 kts | 65° |
| 2026-05-06 03:21 | 44.31426 | -92.91340 | 32992 ft | 564 kts | 65° |
| 2026-05-06 03:22 | 44.34365 | -92.81239 | 32994 ft | 564 kts | 65° |
| 2026-05-06 03:22 | 44.37323 | -92.71040 | 32982 ft | 565 kts | 65° |
| 2026-05-06 03:23 | 44.40261 | -92.60861 | 32982 ft | 565 kts | 65° |
| 2026-05-06 03:23 | 44.42699 | -92.52387 | 32978 ft | 565 kts | 66° |
| 2026-05-06 03:24 | 44.46100 | -92.40516 | 32980 ft | 565 kts | 66° |
| 2026-05-06 03:24 | 44.49015 | -92.30295 | 32978 ft | 565 kts | 66° |
| 2026-05-06 03:25 | 44.51432 | -92.21787 | 32970 ft | 565 kts | 66° |
| 2026-05-06 03:25 | 44.54334 | -92.11533 | 32967 ft | 566 kts | 66° |
| 2026-05-06 03:26 | 44.57229 | -92.01264 | 32945 ft | 565 kts | 66° |
| 2026-05-06 03:26 | 44.60110 | -91.91000 | 32948 ft | 565 kts | 66° |
| 2026-05-06 03:27 | 44.62990 | -91.80696 | 32950 ft | 566 kts | 66° |
| 2026-05-06 03:27 | 44.65847 | -91.70434 | 32953 ft | 566 kts | 66° |
| 2026-05-06 03:28 | 44.68707 | -91.60115 | 32949 ft | 567 kts | 66° |
| 2026-05-06 03:28 | 44.71541 | -91.49846 | 32952 ft | 567 kts | 67° |
| 2026-05-06 03:29 | 44.74387 | -91.39494 | 32948 ft | 567 kts | 67° |
| 2026-05-06 03:29 | 44.77223 | -91.29128 | 32950 ft | 567 kts | 67° |
| 2026-05-06 03:30 | 44.80049 | -91.18759 | 32946 ft | 567 kts | 67° |
| 2026-05-06 03:30 | 44.82871 | -91.08358 | 32950 ft | 567 kts | 67° |
| 2026-05-06 03:31 | 44.85662 | -90.98023 | 32941 ft | 568 kts | 67° |
| 2026-05-06 03:31 | 44.88461 | -90.87620 | 32947 ft | 569 kts | 67° |
| 2026-05-06 03:32 | 44.91260 | -90.77169 | 32943 ft | 569 kts | 68° |
| 2026-05-06 03:32 | 44.94048 | -90.66712 | 32944 ft | 569 kts | 68° |
| 2026-05-06 03:33 | 44.96831 | -90.56227 | 32934 ft | 570 kts | 68° |
| 2026-05-06 03:33 | 44.99605 | -90.45732 | 32930 ft | 570 kts | 68° |
| 2026-05-06 03:34 | 45.02366 | -90.35240 | 32922 ft | 570 kts | 68° |
| 2026-05-06 03:34 | 45.05105 | -90.24784 | 32919 ft | 570 kts | 68° |
| 2026-05-06 03:35 | 45.07853 | -90.14245 | 32923 ft | 571 kts | 68° |
| 2026-05-06 03:35 | 45.10597 | -90.03677 | 32929 ft | 571 kts | 68° |
| 2026-05-06 03:36 | 45.13329 | -89.93106 | 32936 ft | 572 kts | 68° |
| 2026-05-06 03:36 | 45.16054 | -89.82517 | 32940 ft | 572 kts | 68° |
| 2026-05-06 03:37 | 45.18755 | -89.71970 | 32939 ft | 572 kts | 68° |
| 2026-05-06 03:37 | 45.21461 | -89.61354 | 32937 ft | 572 kts | 68° |
| 2026-05-06 03:38 | 45.24161 | -89.50714 | 32937 ft | 573 kts | 68° |
| 2026-05-06 03:38 | 45.26855 | -89.40050 | 32933 ft | 573 kts | 69° |
| 2026-05-06 03:39 | 45.28947 | -89.31737 | 32934 ft | 573 kts | 69° |
| 2026-05-06 03:39 | 45.31622 | -89.21059 | 32931 ft | 574 kts | 69° |
| 2026-05-06 03:40 | 45.34285 | -89.10378 | 32931 ft | 574 kts | 69° |
| 2026-05-06 03:40 | 45.36929 | -88.99726 | 32936 ft | 574 kts | 69° |
| 2026-05-06 03:41 | 45.39578 | -88.89001 | 32935 ft | 574 kts | 69° |
| 2026-05-06 03:41 | 45.42218 | -88.78266 | 32940 ft | 574 kts | 69° |
| 2026-05-06 03:42 | 45.44843 | -88.67537 | 32935 ft | 574 kts | 69° |
| 2026-05-06 03:42 | 45.47463 | -88.56779 | 32938 ft | 574 kts | 69° |
| 2026-05-06 03:43 | 45.50053 | -88.46092 | 32939 ft | 574 kts | 69° |
| 2026-05-06 03:43 | 45.52654 | -88.35311 | 32927 ft | 574 kts | 69° |
| 2026-05-06 03:44 | 45.55241 | -88.24534 | 32923 ft | 574 kts | 69° |
| 2026-05-06 03:44 | 45.57819 | -88.13742 | 32919 ft | 574 kts | 69° |
| 2026-05-06 03:45 | 45.60387 | -88.02940 | 32922 ft | 574 kts | 69° |
| 2026-05-06 03:45 | 45.62946 | -87.92123 | 32925 ft | 574 kts | 69° |
| 2026-05-06 03:46 | 45.65475 | -87.81383 | 32924 ft | 574 kts | 69° |
| 2026-05-06 03:46 | 45.67917 | -87.70959 | 32931 ft | 573 kts | 69° |
| 2026-05-06 03:47 | 45.70439 | -87.60143 | 32933 ft | 573 kts | 70° |
| 2026-05-06 03:47 | 45.72936 | -87.49381 | 32940 ft | 572 kts | 70° |
| 2026-05-06 03:48 | 45.75437 | -87.38547 | 32939 ft | 572 kts | 70° |
| 2026-05-06 03:48 | 45.77920 | -87.27736 | 32941 ft | 571 kts | 70° |
| 2026-05-06 03:49 | 45.80392 | -87.16918 | 32941 ft | 570 kts | 70° |
| 2026-05-06 03:49 | 45.82850 | -87.06113 | 32939 ft | 569 kts | 70° |
| 2026-05-06 03:50 | 45.85293 | -86.95316 | 32942 ft | 568 kts | 70° |
| 2026-05-06 03:50 | 45.87706 | -86.84597 | 32942 ft | 568 kts | 70° |
| 2026-05-06 03:51 | 45.90126 | -86.73793 | 32945 ft | 568 kts | 70° |
| 2026-05-06 03:51 | 45.92538 | -86.62971 | 32946 ft | 568 kts | 70° |
| 2026-05-06 03:52 | 45.94941 | -86.52134 | 32939 ft | 569 kts | 70° |
| 2026-05-06 03:52 | 45.97315 | -86.41371 | 32935 ft | 568 kts | 71° |
| 2026-05-06 03:53 | 45.99695 | -86.30524 | 32925 ft | 568 kts | 71° |
| 2026-05-06 03:53 | 46.02066 | -86.19666 | 32925 ft | 567 kts | 71° |
| 2026-05-06 03:54 | 46.04422 | -86.08819 | 32928 ft | 567 kts | 71° |
| 2026-05-06 03:54 | 46.06764 | -85.97980 | 32927 ft | 566 kts | 71° |
| 2026-05-06 03:55 | 46.08990 | -85.87623 | 32930 ft | 566 kts | 71° |
| 2026-05-06 03:55 | 46.11307 | -85.76791 | 32932 ft | 565 kts | 71° |
| 2026-05-06 03:56 | 46.13614 | -85.65945 | 32922 ft | 565 kts | 71° |
| 2026-05-06 03:56 | 46.15910 | -85.55098 | 32916 ft | 565 kts | 71° |
| 2026-05-06 03:57 | 46.17005 | -85.49724 | 31867 ft | 562 kts | 74° |
| 2026-05-06 03:57 | 46.16301 | -85.44525 | 26305 ft | 510 kts | 130° |
| 2026-05-06 03:57 | 46.15193 | -85.42935 | 19410 ft | 0 kts | 206° |